Time;durP1;ratioP1;P1;durP2;ratioP2;P2;SDS_P1;SDS_P2;PMS_P1;PMS_P2;Temp;Humidity;BMP_temperature;BMP_pressure;BME280_temperature;BME280_humidity;BME280_pressure;Samples;Min_cycle;Max_cycle;Signal;HPM_P1;HPM_P2
2022/05/22 00:01:45;;;;;;;9.75;4.90;;;22.60;60.30;;;;;;5014901;28;20056;-79
2022/05/22 00:04:13;;;;;;;11.90;5.43;;;22.50;60.30;;;;;;5014398;28;20073;-80
2022/05/22 00:06:40;;;;;;;8.20;5.65;;;22.50;60.30;;;;;;5029673;28;20559;-80
2022/05/22 00:09:08;;;;;;;8.75;5.20;;;22.40;60.20;;;;;;5030577;28;20434;-80
2022/05/22 00:11:35;;;;;;;9.90;5.63;;;22.40;60.50;;;;;;5047288;28;20115;-80
2022/05/22 00:14:03;;;;;;;9.40;5.35;;;22.40;61.10;;;;;;5030370;28;20060;-80
2022/05/22 00:16:37;;;;;;;12.30;6.30;;;22.40;62.10;;;;;;5030926;28;20049;-80
2022/05/22 00:19:15;;;;;;;9.43;6.00;;;22.40;63.20;;;;;;5015686;28;20762;-80
2022/05/22 00:21:43;;;;;;;9.40;6.13;;;22.30;65.10;;;;;;5012897;28;20049;-80
2022/05/22 00:24:16;;;;;;;15.00;6.70;;;22.30;66.80;;;;;;4998132;28;20063;-79
2022/05/22 00:26:48;;;;;;;12.90;6.50;;;22.30;68.30;;;;;;5014356;28;20393;-80
2022/05/22 00:29:17;;;;;;;12.10;6.63;;;22.30;69.00;;;;;;4997396;28;20049;-80
2022/05/22 00:31:46;;;;;;;12.07;6.82;;;22.30;70.30;;;;;;5014243;28;20058;-80
2022/05/22 00:34:15;;;;;;;9.63;6.22;;;22.30;72.10;;;;;;5031580;28;20053;-80
2022/05/22 00:36:43;;;;;;;8.85;6.22;;;22.20;74.80;;;;;;5015830;28;20487;-80
2022/05/22 00:39:11;;;;;;;8.10;5.93;;;22.20;76.30;;;;;;5013879;28;20051;-79
2022/05/22 00:41:39;;;;;;;9.05;6.30;;;22.20;77.70;;;;;;5030184;28;20045;-80
2022/05/22 00:44:07;;;;;;;9.27;5.43;;;22.20;79.60;;;;;;5029848;28;20045;-80
2022/05/22 00:46:36;;;;;;;8.52;5.63;;;22.20;81.10;;;;;;5030315;28;20565;-80
2022/05/22 00:49:18;;;;;;;8.38;4.60;;;22.20;82.90;;;;;;5013475;28;20053;-80
2022/05/22 00:52:20;;;;;;;5.15;4.10;;;22.20;84.30;;;;;;5029935;28;20056;-80
2022/05/22 00:55:10;;;;;;;8.10;4.55;;;22.20;86.10;;;;;;5019658;28;20049;-80
2022/05/22 00:57:51;;;;;;;7.18;4.50;;;22.20;87.50;;;;;;5012899;28;20103;-80
2022/05/22 01:00:21;;;;;;;9.23;5.40;;;22.20;88.00;;;;;;5013745;28;20151;-80
2022/05/22 01:05:42;;;;;;;5.07;3.67;;;22.20;88.10;;;;;;5013211;28;20052;-80
2022/05/22 01:08:10;;;;;;;8.13;4.00;;;22.20;88.00;;;;;;5012443;28;20049;-79
2022/05/22 01:11:09;;;;;;;7.10;4.32;;;22.20;87.80;;;;;;5013610;28;20138;-80
2022/05/22 01:13:52;;;;;;;5.63;4.00;;;22.20;87.80;;;;;;5011739;28;20049;-80
2022/05/22 01:16:20;;;;;;;5.32;4.20;;;22.10;87.50;;;;;;5012967;28;20037;-80
2022/05/22 01:18:55;;;;;;;4.75;3.63;;;22.10;87.40;;;;;;5030697;28;20747;-80
2022/05/22 01:21:32;;;;;;;7.30;4.53;;;22.10;87.10;;;;;;5029076;28;20045;-80
2022/05/22 01:24:00;;;;;;;5.35;4.00;;;22.20;86.90;;;;;;5012568;28;20096;-80
2022/05/22 01:26:32;;;;;;;8.70;4.30;;;22.20;86.60;;;;;;5029321;28;20041;-80
2022/05/22 01:29:05;;;;;;;7.38;4.57;;;22.20;86.30;;;;;;4997256;28;20621;-80
2022/05/22 01:31:32;;;;;;;8.43;3.90;;;22.20;86.10;;;;;;4996748;28;20139;-80
2022/05/22 01:34:05;;;;;;;7.68;3.95;;;22.20;85.50;;;;;;5043289;28;20581;-81
2022/05/22 01:36:32;;;;;;;9.85;4.00;;;22.20;84.70;;;;;;5016655;28;20083;-80
2022/05/22 01:39:00;;;;;;;9.25;4.38;;;22.20;84.20;;;;;;5032213;28;20411;-80
2022/05/22 01:41:57;;;;;;;9.40;3.92;;;22.20;83.90;;;;;;5039633;28;20049;-80
2022/05/22 01:44:26;;;;;;;6.65;4.20;;;22.20;83.70;;;;;;5016113;28;20087;-80
2022/05/22 01:46:54;;;;;;;9.32;4.05;;;22.10;83.50;;;;;;5032509;28;20495;-81
2022/05/22 01:49:25;;;;;;;9.23;4.55;;;22.10;83.30;;;;;;5016426;28;20049;-80
2022/05/22 01:51:53;;;;;;;6.00;3.90;;;22.10;82.90;;;;;;5032211;28;20051;-80
2022/05/22 01:54:20;;;;;;;10.68;4.70;;;22.10;82.20;;;;;;5031963;28;20045;-80
2022/05/22 01:56:48;;;;;;;11.23;4.25;;;22.10;81.50;;;;;;5015992;28;20110;-80
2022/05/22 01:59:16;;;;;;;5.40;4.00;;;22.10;80.30;;;;;;5032381;28;20056;-80
2022/05/22 02:01:51;;;;;;;7.50;3.20;;;22.00;79.10;;;;;;5029865;28;20069;-79
2022/05/22 02:04:18;;;;;;;5.30;3.70;;;22.00;78.30;;;;;;5012440;28;20793;-80
2022/05/22 02:09:34;;;;;;;4.68;3.30;;;22.10;77.10;;;;;;5032951;28;20518;-80
2022/05/22 02:12:02;;;;;;;7.00;4.50;;;22.10;76.60;;;;;;5032514;28;20581;-80
2022/05/22 02:14:30;;;;;;;8.27;3.88;;;22.10;76.50;;;;;;5016524;28;20049;-80
2022/05/22 02:17:06;;;;;;;8.35;4.20;;;22.20;76.30;;;;;;5016428;28;20144;-80
2022/05/22 02:19:44;;;;;;;5.85;3.67;;;22.20;76.00;;;;;;5016287;28;20184;-80
2022/05/22 02:22:12;;;;;;;8.10;4.40;;;22.20;75.80;;;;;;5032679;28;20049;-80
2022/05/22 02:24:39;;;;;;;5.80;3.63;;;22.20;75.60;;;;;;5032494;28;20107;-80
2022/05/22 02:27:12;;;;;;;9.73;4.80;;;22.20;75.50;;;;;;5015883;28;20511;-80
2022/05/22 02:29:40;;;;;;;7.03;3.70;;;22.30;75.30;;;;;;5015544;28;20561;-80
2022/05/22 02:32:08;;;;;;;8.65;4.43;;;22.30;74.80;;;;;;5031774;28;20698;-80
2022/05/22 02:34:36;;;;;;;5.70;3.95;;;22.30;74.60;;;;;;5015854;28;20046;-80
2022/05/22 02:37:04;;;;;;;6.80;3.78;;;22.30;74.50;;;;;;5015532;28;20050;-80
2022/05/22 02:39:31;;;;;;;10.10;4.05;;;22.40;74.30;;;;;;5015702;28;20234;-80
2022/05/22 02:42:07;;;;;;;7.03;4.68;;;22.40;74.10;;;;;;5016592;28;20045;-80
2022/05/22 02:44:35;;;;;;;5.30;4.00;;;22.40;73.80;;;;;;5015403;28;20049;-80
2022/05/22 02:47:03;;;;;;;7.63;4.38;;;22.40;73.80;;;;;;5044367;28;20073;-80
2022/05/22 02:49:31;;;;;;;8.77;4.35;;;22.40;73.70;;;;;;5032152;28;20046;-80
2022/05/22 02:52:00;;;;;;;7.78;4.10;;;22.30;73.70;;;;;;5031481;28;20144;-80
2022/05/22 02:54:27;;;;;;;5.38;3.42;;;22.30;73.70;;;;;;5048281;28;20128;-80
2022/05/22 02:57:03;;;;;;;6.22;4.32;;;22.30;73.80;;;;;;5031978;28;20095;-80
2022/05/22 02:59:36;;;;;;;7.60;4.10;;;22.40;73.80;;;;;;5015570;28;20508;-80
2022/05/22 03:02:09;;;;;;;6.28;4.47;;;22.40;73.60;;;;;;5020540;28;20057;-80
2022/05/22 03:04:38;;;;;;;6.57;3.90;;;22.40;73.50;;;;;;5032116;28;20041;-80
2022/05/22 03:07:09;;;;;;;8.65;4.45;;;22.40;73.60;;;;;;4999257;28;20508;-81
2022/05/22 03:09:39;;;;;;;8.10;4.22;;;22.40;73.60;;;;;;5031604;28;20127;-80
2022/05/22 03:12:21;;;;;;;9.10;4.38;;;22.30;73.50;;;;;;5031213;28;20053;-80
2022/05/22 03:14:54;;;;;;;10.98;5.18;;;22.30;73.50;;;;;;5015769;28;20068;-80
2022/05/22 03:17:24;;;;;;;10.13;5.07;;;22.20;73.50;;;;;;5031553;28;20049;-80
2022/05/22 03:19:56;;;;;;;5.60;3.78;;;22.30;73.80;;;;;;4997825;28;20053;-80
2022/05/22 03:22:24;;;;;;;7.00;4.10;;;22.20;73.80;;;;;;4998679;28;20063;-80
2022/05/22 03:24:52;;;;;;;8.50;4.70;;;22.10;73.90;;;;;;5031192;28;20048;-80
2022/05/22 03:27:21;;;;;;;4.95;3.45;;;22.10;73.90;;;;;;4998749;28;20045;-80
2022/05/22 03:29:52;;;;;;;8.98;4.65;;;22.10;74.00;;;;;;4998976;28;20064;-80
2022/05/22 03:32:20;;;;;;;6.88;4.18;;;22.10;74.00;;;;;;5031342;28;20053;-80
2022/05/22 03:34:49;;;;;;;7.38;3.75;;;22.10;74.10;;;;;;4998633;28;20153;-80
2022/05/22 03:37:17;;;;;;;8.00;3.58;;;22.10;74.10;;;;;;5031206;28;20053;-80
2022/05/22 03:39:45;;;;;;;6.47;4.32;;;22.00;73.80;;;;;;5031262;28;20099;-80
2022/05/22 03:42:12;;;;;;;7.70;4.32;;;22.10;73.60;;;;;;5029472;28;20068;-80
2022/05/22 03:44:40;;;;;;;9.65;4.18;;;22.10;73.30;;;;;;5050960;28;20134;-80
2022/05/22 03:47:08;;;;;;;6.32;4.38;;;22.20;73.20;;;;;;5017859;28;20515;-80
2022/05/22 03:49:47;;;;;;;7.32;3.97;;;22.30;73.10;;;;;;5034022;28;20079;-80
2022/05/22 03:52:16;;;;;;;8.07;4.50;;;22.30;73.10;;;;;;5018427;28;20060;-80
2022/05/22 03:54:44;;;;;;;8.35;4.05;;;22.40;73.20;;;;;;5034411;28;20057;-79
2022/05/22 03:57:14;;;;;;;5.25;3.78;;;22.40;73.20;;;;;;5034507;28;20037;-79
2022/05/22 03:59:41;;;;;;;6.15;3.65;;;22.40;72.80;;;;;;5050503;28;20045;-80
2022/05/22 04:02:11;;;;;;;7.32;3.83;;;22.50;72.70;;;;;;5017301;28;20499;-78
2022/05/22 04:04:40;;;;;;;9.07;4.40;;;22.60;72.70;;;;;;5018020;28;20107;-79
2022/05/22 04:07:23;;;;;;;7.38;3.85;;;22.60;72.80;;;;;;5050606;28;20116;-79
2022/05/22 04:09:56;;;;;;;7.75;4.28;;;22.70;72.90;;;;;;5034253;28;20041;-79
2022/05/22 04:12:34;;;;;;;6.25;3.75;;;22.80;73.10;;;;;;5035166;28;20049;-80
2022/05/22 04:15:04;;;;;;;6.88;4.30;;;22.80;73.00;;;;;;5033425;28;20056;-79
2022/05/22 04:17:32;;;;;;;29.83;7.03;;;22.90;72.80;;;;;;5033501;28;20139;-80
2022/05/22 04:20:09;;;;;;;9.95;3.70;;;23.00;73.00;;;;;;5033453;28;20064;-78
2022/05/22 04:25:26;;;;;;;;;;;23.10;72.50;;;;;;5050672;28;20052;-77
2022/05/22 04:27:55;;;;;;;9.80;4.78;;;23.30;72.50;;;;;;5034140;28;19963;-78
2022/05/22 04:30:24;;;;;;;6.03;4.13;;;23.40;72.00;;;;;;5049888;28;20398;-79
2022/05/22 04:33:02;;;;;;;6.65;3.28;;;23.50;72.10;;;;;;5049954;28;20088;-79
2022/05/22 04:35:31;;;;;;;5.38;3.28;;;23.60;71.60;;;;;;5030037;28;20425;-79
2022/05/22 04:38:02;;;;;;;8.57;3.20;;;23.70;71.40;;;;;;5013753;28;20133;-78
2022/05/22 04:40:31;;;;;;;9.23;4.05;;;23.80;71.50;;;;;;5013301;28;20412;-77
2022/05/22 04:42:59;;;;;;;6.07;3.30;;;23.90;71.20;;;;;;5013348;28;20045;-78
2022/05/22 04:45:27;;;;;;;5.40;4.15;;;24.00;70.60;;;;;;5030032;28;20132;-78
2022/05/22 04:48:01;;;;;;;5.60;3.83;;;24.10;70.60;;;;;;5014538;28;20167;-78
2022/05/22 04:50:54;;;;;;;6.30;3.85;;;24.30;70.20;;;;;;5029909;28;20045;-78
2022/05/22 04:53:35;;;;;;;4.88;3.20;;;24.40;69.60;;;;;;4999383;28;20788;-79
2022/05/22 04:56:05;;;;;;;6.63;2.85;;;24.60;69.20;;;;;;5029715;28;20080;-78
2022/05/22 04:58:47;;;;;;;8.25;3.03;;;24.70;69.40;;;;;;5013455;28;20157;-79
2022/05/22 05:01:17;;;;;;;8.18;3.13;;;24.80;69.20;;;;;;5013659;28;20107;-79
2022/05/22 05:04:14;;;;;;;5.10;2.80;;;25.00;68.90;;;;;;5008927;28;20056;-78
2022/05/22 05:07:09;;;;;;;6.25;3.08;;;25.10;68.60;;;;;;5030391;28;20057;-79
2022/05/22 05:09:57;;;;;;;5.72;3.03;;;25.30;68.20;;;;;;5015187;28;20144;-79
2022/05/22 05:12:45;;;;;;;5.28;3.60;;;25.40;67.70;;;;;;5029689;28;20578;-80
2022/05/22 05:15:32;;;;;;;5.70;3.08;;;25.50;67.60;;;;;;5029936;28;20061;-79
2022/05/22 05:18:13;;;;;;;5.20;2.88;;;25.60;67.10;;;;;;5031095;28;20046;-79
2022/05/22 05:20:46;;;;;;;4.40;2.88;;;25.70;67.10;;;;;;5029627;28;20073;-78
2022/05/22 05:23:15;;;;;;;7.35;3.70;;;25.80;66.90;;;;;;5032498;28;20115;-79
2022/05/22 05:25:47;;;;;;;4.47;3.05;;;26.00;66.80;;;;;;5033507;28;20041;-81
2022/05/22 05:28:16;;;;;;;6.60;3.38;;;26.10;66.70;;;;;;5049169;28;20391;-79
2022/05/22 05:30:44;;;;;;;3.45;2.65;;;26.20;66.40;;;;;;5032615;28;20045;-81
2022/05/22 05:33:11;;;;;;;4.47;2.92;;;26.30;66.30;;;;;;5048975;28;20053;-78
2022/05/22 05:35:58;;;;;;;6.57;3.55;;;26.40;65.90;;;;;;5050132;28;20040;-79
2022/05/22 05:38:45;;;;;;;5.25;2.30;;;26.50;65.80;;;;;;5050182;28;20496;-80
2022/05/22 05:41:58;;;;;;;4.22;2.75;;;26.70;66.50;;;;;;4977583;28;20078;-79
2022/05/22 05:44:34;;;;;;;7.60;3.05;;;26.80;65.50;;;;;;5023894;28;20052;-79
2022/05/22 05:47:13;;;;;;;4.85;2.95;;;26.90;65.90;;;;;;5049126;28;20055;-79
2022/05/22 05:49:59;;;;;;;;;;;27.00;66.70;;;;;;5049834;28;20098;-79
2022/05/22 05:52:39;;;;;;;5.20;2.90;;;27.10;67.50;;;;;;5032313;28;19975;-79
2022/05/22 05:55:27;;;;;;;7.45;3.30;;;27.20;68.20;;;;;;5050015;28;20044;-81
2022/05/22 05:58:31;;;;;;;7.93;3.60;;;27.30;69.10;;;;;;5050081;28;20394;-80
2022/05/22 06:01:40;;;;;;;6.18;3.55;;;27.40;69.30;;;;;;4988556;28;20057;-80
2022/05/22 06:04:07;;;;;;;10.45;3.95;;;27.60;69.70;;;;;;5033030;28;20068;-79
2022/05/22 06:06:35;;;;;;;7.82;3.80;;;27.60;69.50;;;;;;5049994;28;20095;-79
2022/05/22 06:09:04;;;;;;;13.52;4.78;;;27.70;69.70;;;;;;5032497;28;20402;-80
2022/05/22 06:11:38;;;;;;;10.70;4.55;;;27.70;69.50;;;;;;5048685;28;20174;-80
2022/05/22 06:14:22;;;;;;;10.98;4.22;;;27.80;69.80;;;;;;5041990;28;20395;-79
2022/05/22 06:16:50;;;;;;;14.88;4.63;;;27.90;70.00;;;;;;5012174;28;20519;-81
2022/05/22 06:19:53;;;;;;;8.02;4.40;;;28.00;70.40;;;;;;5028677;28;20049;-80
2022/05/22 06:22:08;;;;;;;9.85;4.70;;;28.10;70.40;;;;;;5012086;28;20056;-80
2022/05/22 06:24:37;;;;;;;6.97;3.75;;;28.20;69.80;;;;;;5028470;28;20076;-80
2022/05/22 06:27:23;;;;;;;12.88;4.55;;;28.30;69.40;;;;;;5029682;28;20396;-80
2022/05/22 06:30:12;;;;;;;9.32;4.00;;;28.30;68.70;;;;;;5045090;28;20049;-78
2022/05/22 06:33:10;;;;;;;7.10;3.20;;;28.40;68.80;;;;;;5040531;28;20061;-80
2022/05/22 06:35:58;;;;;;;8.10;3.97;;;28.50;69.00;;;;;;5048819;28;20126;-79
2022/05/22 06:41:56;;;;;;;6.82;3.63;;;28.60;68.50;;;;;;5025648;28;20048;-80
2022/05/22 06:44:56;;;;;;;10.88;3.50;;;28.70;68.50;;;;;;5048177;28;20090;-79
2022/05/22 06:47:45;;;;;;;10.40;3.17;;;28.80;68.30;;;;;;5048004;28;20053;-79
2022/05/22 06:50:33;;;;;;;6.57;3.60;;;28.80;68.10;;;;;;5031678;28;20072;-79
2022/05/22 06:53:24;;;;;;;6.72;3.63;;;28.80;68.10;;;;;;5026046;28;20449;-80
2022/05/22 06:55:55;;;;;;;5.55;2.70;;;28.70;68.10;;;;;;5035993;28;20063;-79
2022/05/22 06:58:52;;;;;;;7.72;3.42;;;28.70;67.90;;;;;;5047513;28;20110;-80
2022/05/22 07:01:32;;;;;;;8.88;3.10;;;28.80;68.30;;;;;;5068464;28;20059;-79
2022/05/22 07:04:06;;;;;;;5.25;3.33;;;28.80;68.80;;;;;;5051867;28;20045;-80
2022/05/22 07:07:06;;;;;;;5.65;2.70;;;29.00;68.50;;;;;;4996279;28;20503;-80
2022/05/22 07:09:34;;;;;;;5.55;3.03;;;29.20;68.90;;;;;;5052709;28;20649;-79
2022/05/22 07:12:15;;;;;;;9.90;3.75;;;29.30;68.40;;;;;;5053157;28;20040;-80
2022/05/22 07:15:03;;;;;;;4.78;3.40;;;29.30;68.60;;;;;;5071581;28;20040;-80
2022/05/22 07:17:43;;;;;;;5.47;3.25;;;29.50;69.10;;;;;;5056379;28;20052;-80
2022/05/22 07:20:29;;;;;;;4.70;3.25;;;29.50;69.20;;;;;;5071419;28;20044;-80
2022/05/22 07:23:15;;;;;;;;;;;29.60;68.80;;;;;;5071507;28;20181;-80
2022/05/22 07:25:58;;;;;;;7.72;3.55;;;29.70;68.50;;;;;;5054354;28;20362;-80
2022/05/22 07:28:46;;;;;;;5.20;2.83;;;29.70;67.80;;;;;;5054065;28;20384;-81
2022/05/22 07:31:40;;;;;;;5.38;3.17;;;29.70;67.10;;;;;;5048810;28;20057;-80
2022/05/22 07:34:27;;;;;;;5.22;2.92;;;29.80;66.60;;;;;;5051402;28;20048;-79
2022/05/22 07:37:13;;;;;;;7.15;2.97;;;29.80;66.50;;;;;;5037346;28;20633;-79
2022/05/22 07:39:41;;;;;;;7.00;3.30;;;30.00;66.60;;;;;;5051346;28;20049;-80
2022/05/22 07:42:27;;;;;;;4.80;2.45;;;30.00;66.00;;;;;;5037341;28;20048;-80
2022/05/22 07:44:55;;;;;;;5.30;2.58;;;29.90;65.70;;;;;;5052164;28;20114;-80
2022/05/22 07:47:46;;;;;;;4.93;2.80;;;29.70;65.50;;;;;;5045342;28;20118;-80
2022/05/22 07:50:32;;;;;;;6.57;2.83;;;29.70;65.70;;;;;;5050990;28;20114;-79
2022/05/22 07:53:00;;;;;;;6.40;2.60;;;29.80;65.90;;;;;;5052130;28;20049;-80
2022/05/22 07:55:46;;;;;;;5.03;2.95;;;29.90;65.60;;;;;;5050882;28;20609;-79
2022/05/22 07:58:50;;;;;;;4.80;2.20;;;30.00;65.60;;;;;;4971755;28;20047;-79
2022/05/22 08:01:37;;;;;;;8.63;2.83;;;30.10;65.70;;;;;;5037376;28;20052;-79
2022/05/22 08:04:24;;;;;;;7.80;3.17;;;30.30;65.30;;;;;;5049737;28;20049;-79
2022/05/22 08:07:12;;;;;;;7.18;2.83;;;30.40;65.80;;;;;;5036837;28;20053;-80
2022/05/22 08:10:00;;;;;;;4.90;2.80;;;30.40;64.90;;;;;;5043466;28;20046;-79
2022/05/22 08:12:42;;;;;;;7.00;3.10;;;30.50;64.70;;;;;;5030427;28;20049;-80
2022/05/22 08:15:18;;;;;;;;;;;30.60;65.00;;;;;;5014439;28;20085;-80
2022/05/22 08:17:47;;;;;;;5.07;3.08;;;30.70;64.60;;;;;;5030675;28;20032;-79
2022/05/22 08:20:19;;;;;;;6.10;2.38;;;30.80;64.70;;;;;;5030464;28;20049;-79
2022/05/22 08:23:00;;;;;;;6.82;2.47;;;30.90;64.50;;;;;;5014089;28;20050;-79
2022/05/22 08:25:43;;;;;;;4.95;2.50;;;30.90;64.00;;;;;;5030606;28;20041;-79
2022/05/22 08:28:13;;;;;;;4.60;2.42;;;30.90;64.20;;;;;;5014187;28;20053;-79
2022/05/22 08:30:41;;;;;;;3.78;2.67;;;30.70;64.10;;;;;;5015059;28;20050;-79
2022/05/22 08:33:09;;;;;;;7.07;2.50;;;30.60;64.70;;;;;;5014900;28;20510;-80
2022/05/22 08:35:40;;;;;;;5.25;2.90;;;30.70;65.00;;;;;;5023462;28;20042;-79
2022/05/22 08:38:08;;;;;;;4.07;2.50;;;30.70;65.20;;;;;;5043667;28;20076;-81
2022/05/22 08:41:15;;;;;;;6.75;3.13;;;30.70;65.20;;;;;;5033676;28;20057;-80
2022/05/22 08:44:11;;;;;;;4.68;2.92;;;30.80;65.50;;;;;;5032528;28;20076;-80
2022/05/22 08:47:03;;;;;;;7.45;2.78;;;30.90;66.00;;;;;;5016868;28;20060;-80
2022/05/22 08:50:03;;;;;;;9.90;3.17;;;30.90;66.60;;;;;;5016940;28;20037;-79
2022/05/22 08:52:41;;;;;;;5.13;2.80;;;31.00;67.30;;;;;;5031411;28;20052;-80
2022/05/22 08:55:17;;;;;;;8.25;3.60;;;31.10;67.40;;;;;;5016752;28;20068;-78
2022/05/22 09:01:04;;;;;;;4.85;2.45;;;31.00;68.00;;;;;;5032225;28;20466;-80
2022/05/22 09:04:23;;;;;;;6.45;3.25;;;30.90;68.50;;;;;;5049438;28;20037;-80
2022/05/22 09:07:09;;;;;;;4.78;2.53;;;30.90;68.60;;;;;;5046216;28;20077;-83
2022/05/22 09:09:39;;;;;;;5.53;2.65;;;30.70;68.90;;;;;;5013237;28;20147;-81
2022/05/22 09:12:11;;;;;;;3.75;2.60;;;30.50;69.50;;;;;;5013002;28;20109;-81
2022/05/22 09:15:12;;;;;;;7.60;3.13;;;30.50;70.20;;;;;;5013462;28;20041;-81
2022/05/22 09:18:00;;;;;;;7.78;3.45;;;30.50;70.10;;;;;;5012468;28;20507;-81
2022/05/22 09:20:52;;;;;;;5.80;3.35;;;30.60;70.30;;;;;;4996571;28;20578;-82
2022/05/22 09:23:34;;;;;;;8.95;4.00;;;30.60;70.80;;;;;;5032246;28;20414;-80
2022/05/22 09:26:23;;;;;;;6.45;4.10;;;30.60;71.70;;;;;;5038866;28;20053;-81
2022/05/22 09:28:57;;;;;;;7.45;3.40;;;30.60;71.00;;;;;;5031066;28;20879;-82
2022/05/22 09:31:35;;;;;;;4.10;2.83;;;30.60;71.00;;;;;;5053263;28;20064;-83
2022/05/22 09:34:15;;;;;;;7.75;3.55;;;30.40;71.30;;;;;;5049285;28;20483;-81
2022/05/22 09:36:45;;;;;;;6.72;3.78;;;30.40;71.70;;;;;;5031106;28;20051;-79
2022/05/22 09:39:31;;;;;;;5.47;3.25;;;30.30;71.90;;;;;;5029942;28;20071;-80
2022/05/22 09:41:59;;;;;;;6.05;3.42;;;30.30;71.80;;;;;;5024368;28;20040;-80
2022/05/22 09:44:48;;;;;;;8.45;3.67;;;30.40;72.50;;;;;;5031217;28;20045;-80
2022/05/22 09:47:40;;;;;;;6.20;3.88;;;30.50;72.60;;;;;;5046911;28;20104;-80
2022/05/22 09:50:29;;;;;;;7.72;3.55;;;30.50;72.20;;;;;;5040475;28;20052;-79
2022/05/22 09:53:09;;;;;;;9.77;4.13;;;30.70;71.90;;;;;;5031920;28;20708;-80
2022/05/22 09:55:47;;;;;;;5.10;3.22;;;30.80;71.70;;;;;;5048717;28;20526;-80
2022/05/22 09:58:33;;;;;;;7.60;3.42;;;30.90;71.80;;;;;;5027990;28;20124;-80
2022/05/22 10:01:07;;;;;;;6.57;3.92;;;30.90;71.80;;;;;;5012725;28;20049;-80
2022/05/22 10:03:48;;;;;;;7.72;4.13;;;30.90;72.10;;;;;;4996627;28;20117;-80
2022/05/22 10:06:21;;;;;;;6.30;3.63;;;30.80;71.90;;;;;;5012762;28;20071;-81
2022/05/22 10:08:56;;;;;;;6.70;3.65;;;30.90;72.10;;;;;;5033750;28;20091;-81
2022/05/22 10:11:41;;;;;;;5.20;3.92;;;30.80;72.00;;;;;;5012816;28;20044;-81
2022/05/22 10:14:20;;;;;;;4.78;3.33;;;30.80;72.30;;;;;;5010110;28;20386;-81
2022/05/22 10:17:22;;;;;;;6.05;3.55;;;30.80;72.30;;;;;;5044624;28;20052;-79
2022/05/22 10:20:06;;;;;;;6.05;3.38;;;30.70;72.30;;;;;;5046348;28;20406;-81
2022/05/22 10:23:32;;;;;;;6.47;3.30;;;30.70;72.20;;;;;;5046706;28;20510;-81
2022/05/22 10:26:02;;;;;;;6.50;3.83;;;30.70;72.20;;;;;;4962705;28;20509;-80
2022/05/22 10:28:47;;;;;;;7.10;3.28;;;30.80;72.20;;;;;;5011580;28;20037;-83
2022/05/22 10:31:40;;;;;;;5.75;3.80;;;30.80;71.90;;;;;;5034566;28;20065;-80
2022/05/22 10:34:29;;;;;;;6.95;3.70;;;30.90;72.00;;;;;;5051753;28;20037;-82
2022/05/22 10:37:00;;;;;;;8.82;4.30;;;30.90;72.10;;;;;;5051147;28;20466;-81
2022/05/22 10:39:28;;;;;;;6.10;3.28;;;30.90;71.50;;;;;;5050877;28;20752;-80
2022/05/22 10:45:25;;;;;;;9.55;3.50;;;30.90;70.50;;;;;;5050658;28;20049;-83
2022/05/22 10:47:54;;;;;;;4.43;3.28;;;30.90;70.30;;;;;;5030426;28;20515;-82
2022/05/22 10:50:26;;;;;;;9.32;3.30;;;30.80;70.20;;;;;;5031317;28;20053;-84
2022/05/22 10:52:55;;;;;;;7.78;3.85;;;30.80;70.10;;;;;;5014330;28;20093;-83
2022/05/22 10:55:31;;;;;;;4.68;3.03;;;30.80;70.00;;;;;;5047328;28;20353;-81
2022/05/22 10:58:03;;;;;;;11.18;3.60;;;30.70;69.20;;;;;;5014561;28;20811;-82
2022/05/22 11:00:32;;;;;;;5.95;3.22;;;30.60;69.80;;;;;;5050853;28;20037;-80
2022/05/22 11:03:11;;;;;;;6.82;3.72;;;30.70;69.30;;;;;;5017531;28;20049;-83
2022/05/22 11:05:39;;;;;;;15.07;4.40;;;30.70;69.80;;;;;;5016153;28;20056;-80
2022/05/22 11:08:07;;;;;;;6.57;3.78;;;30.70;70.00;;;;;;5039731;28;20539;-82
2022/05/22 11:10:39;;;;;;;5.35;3.53;;;30.70;69.60;;;;;;5050156;28;20045;-83
2022/05/22 11:13:20;;;;;;;4.68;3.17;;;30.70;69.80;;;;;;5033643;28;20106;-83
2022/05/22 11:15:52;;;;;;;5.85;2.88;;;30.60;70.00;;;;;;5050279;28;20037;-82
2022/05/22 11:18:19;;;;;;;3.97;2.88;;;30.60;70.20;;;;;;5051665;28;20359;-82
2022/05/22 11:20:56;;;;;;;5.65;2.83;;;30.50;70.20;;;;;;5050519;28;20105;-82
2022/05/22 11:23:38;;;;;;;6.30;2.80;;;30.40;70.60;;;;;;5033206;28;20772;-81
2022/05/22 11:26:31;;;;;;;6.07;2.80;;;30.30;70.60;;;;;;5049792;28;20045;-82
2022/05/22 11:29:17;;;;;;;6.70;2.72;;;30.20;70.80;;;;;;5048936;28;20045;-83
2022/05/22 11:32:04;;;;;;;7.85;3.28;;;30.20;70.70;;;;;;5034466;28;20061;-82
2022/05/22 11:34:44;;;;;;;5.18;2.63;;;30.10;70.90;;;;;;5032672;28;20429;-82
2022/05/22 11:37:32;;;;;;;8.23;2.80;;;30.10;70.80;;;;;;5033581;28;20045;-82
2022/05/22 11:40:27;;;;;;;5.88;2.40;;;30.20;70.20;;;;;;5050046;28;20041;-81
2022/05/22 11:43:32;;;;;;;7.68;2.45;;;30.10;70.10;;;;;;5050287;28;20055;-82
2022/05/22 11:46:08;;;;;;;4.53;2.90;;;30.10;70.00;;;;;;5030972;28;20059;-82
2022/05/22 11:49:10;;;;;;;3.83;2.58;;;29.90;70.00;;;;;;5012491;28;20725;-81
2022/05/22 11:51:49;;;;;;;4.07;2.35;;;29.80;69.10;;;;;;5027897;28;20049;-80
2022/05/22 11:54:32;;;;;;;7.45;2.35;;;29.70;69.20;;;;;;5028603;28;20060;-81
2022/05/22 11:57:16;;;;;;;5.60;2.78;;;29.70;69.10;;;;;;4997272;28;20083;-82
2022/05/22 12:00:08;;;;;;;5.13;2.55;;;29.70;69.10;;;;;;5012934;28;20073;-82
2022/05/22 12:02:38;;;;;;;5.30;2.78;;;29.80;68.60;;;;;;5030621;28;20185;-82
2022/05/22 12:05:30;;;;;;;5.60;2.65;;;29.80;69.00;;;;;;5014048;28;20050;-82
2022/05/22 12:08:35;;;;;;;4.40;2.75;;;29.80;68.80;;;;;;5029727;28;20053;-82
2022/05/22 12:11:13;;;;;;;4.95;2.60;;;29.80;68.60;;;;;;5029997;28;20052;-82
2022/05/22 12:13:44;;;;;;;3.47;2.28;;;29.90;68.40;;;;;;5013197;28;20045;-81
2022/05/22 12:16:26;;;;;;;5.32;2.97;;;29.90;68.30;;;;;;5029033;28;20107;-82
2022/05/22 12:19:12;;;;;;;7.38;3.40;;;29.90;68.50;;;;;;5012477;28;20052;-81
2022/05/22 12:21:51;;;;;;;5.05;2.45;;;29.90;69.10;;;;;;5012959;28;20041;-82
2022/05/22 12:24:46;;;;;;;4.40;2.95;;;29.90;68.90;;;;;;5013072;28;20348;-82
2022/05/22 12:27:21;;;;;;;5.55;2.55;;;29.90;69.30;;;;;;5012994;28;20045;-82
2022/05/22 12:30:11;;;;;;;4.28;2.88;;;30.00;69.40;;;;;;5028984;28;20056;-80
2022/05/22 12:33:00;;;;;;;5.25;2.95;;;29.90;68.60;;;;;;5028591;28;20061;-81
2022/05/22 12:35:28;;;;;;;3.75;3.05;;;29.80;68.80;;;;;;5032005;28;20499;-80
2022/05/22 12:38:03;;;;;;;5.85;2.60;;;29.80;68.80;;;;;;5028672;28;20060;-80
2022/05/22 12:40:45;;;;;;;6.05;2.70;;;29.80;68.50;;;;;;4996125;28;20085;-82
2022/05/22 12:43:22;;;;;;;5.97;3.10;;;29.80;68.80;;;;;;4995958;28;20116;-81
2022/05/22 12:45:54;;;;;;;4.80;2.72;;;29.80;68.70;;;;;;5044886;28;20041;-81
2022/05/22 12:48:34;;;;;;;5.32;2.70;;;29.80;68.10;;;;;;5028573;28;20078;-82
2022/05/22 12:51:10;;;;;;;5.60;2.60;;;29.70;68.20;;;;;;5028622;28;20093;-81
2022/05/22 12:53:47;;;;;;;6.30;2.83;;;29.70;68.00;;;;;;5029575;28;20049;-80
2022/05/22 12:56:31;;;;;;;7.13;2.65;;;29.70;68.40;;;;;;5028934;28;20067;-80
2022/05/22 12:59:24;;;;;;;6.93;3.00;;;29.70;68.30;;;;;;5011920;28;20080;-80
2022/05/22 13:01:55;;;;;;;8.07;2.97;;;29.80;68.00;;;;;;5021275;28;20061;-83
2022/05/22 13:04:39;;;;;;;3.42;2.20;;;29.80;67.80;;;;;;5028450;28;20068;-82
2022/05/22 13:07:07;;;;;;;9.13;2.97;;;29.70;67.80;;;;;;5028659;28;20129;-83
2022/05/22 13:09:40;;;;;;;5.03;2.42;;;29.80;67.60;;;;;;5028524;28;20049;-83
2022/05/22 13:12:08;;;;;;;6.00;2.75;;;29.80;67.10;;;;;;5011019;28;20071;-83
2022/05/22 13:14:48;;;;;;;8.35;3.22;;;29.80;67.30;;;;;;5044406;28;20092;-82
2022/05/22 13:17:40;;;;;;;6.55;2.67;;;29.80;67.30;;;;;;5012443;28;20151;-82
2022/05/22 13:20:21;;;;;;;4.90;2.38;;;29.80;67.00;;;;;;5029400;28;20049;-83
2022/05/22 13:23:02;;;;;;;3.90;2.33;;;29.90;67.10;;;;;;5044256;28;20137;-82
2022/05/22 13:25:43;;;;;;;4.63;3.00;;;29.80;67.00;;;;;;5011763;28;20123;-81
2022/05/22 13:28:31;;;;;;;5.82;3.35;;;29.80;66.80;;;;;;5027927;28;20041;-82
2022/05/22 13:31:08;;;;;;;5.20;2.78;;;29.70;66.40;;;;;;5012820;28;20059;-83
2022/05/22 13:34:00;;;;;;;5.28;2.58;;;29.60;66.50;;;;;;5080279;28;20056;-82
2022/05/22 13:36:32;;;;;;;5.07;3.25;;;29.60;66.90;;;;;;5054582;28;20080;-83
2022/05/22 13:39:06;;;;;;;4.10;2.85;;;29.60;67.10;;;;;;5038058;28;20063;-83
2022/05/22 13:42:13;;;;;;;7.70;2.40;;;29.60;67.00;;;;;;5070949;28;20083;-82
2022/05/22 13:45:10;;;;;;;;;;;29.60;67.00;;;;;;5089311;28;20089;-82
2022/05/22 13:47:40;;;;;;;4.03;2.45;;;29.60;66.70;;;;;;5054500;28;19931;-83
2022/05/22 13:53:22;;;;;;;3.63;2.33;;;29.60;66.80;;;;;;5070625;28;20043;-83
2022/05/22 13:55:53;;;;;;;3.65;2.67;;;29.60;66.60;;;;;;5070501;28;20047;-81
2022/05/22 13:58:34;;;;;;;4.15;2.92;;;29.50;66.40;;;;;;5070964;28;20051;-82
2022/05/22 14:01:11;;;;;;;3.45;2.15;;;29.50;66.60;;;;;;5071031;28;20090;-82
2022/05/22 14:03:55;;;;;;;4.70;2.70;;;29.50;66.40;;;;;;5055748;28;20062;-82
2022/05/22 14:06:28;;;;;;;6.45;2.67;;;29.50;66.30;;;;;;5058132;28;20823;-82